Time;durP1;ratioP1;P1;durP2;ratioP2;P2;SDS_P1;SDS_P2;PMS_P1;PMS_P2;Temp;Humidity;BMP_temperature;BMP_pressure;BME280_temperature;BME280_humidity;BME280_pressure;Samples;Min_cycle;Max_cycle;Signal;HPM_P1;HPM_P2
2022/06/26 00:00:50;;;;;;;1.70;1.60;;;;;;;;;;5076650;28;20446;-89
2022/06/26 00:03:17;;;;;;;2.60;1.97;;;;;;;;;;5076358;28;20450;-91
2022/06/26 00:05:44;;;;;;;2.37;2.17;;;;;;;;;;5076249;28;20449;-90
2022/06/26 00:08:12;;;;;;;2.03;1.90;;;;;;;;;;5072680;28;20837;-89
2022/06/26 00:10:41;;;;;;;2.60;2.03;;;;;;;;;;5076186;28;20456;-89
2022/06/26 00:13:09;;;;;;;1.90;1.80;;;17.00;99.90;;;;;;5076903;28;20457;-89
2022/06/26 00:15:36;;;;;;;1.50;1.40;;;;;;;;;;5077328;28;20512;-89
2022/06/26 00:18:03;;;;;;;2.67;2.07;;;;;;;;;;5077602;28;20489;-89
2022/06/26 00:20:30;;;;;;;1.20;1.10;;;;;;;;;;5079058;28;20454;-89
2022/06/26 00:22:57;;;;;;;2.43;1.33;;;;;;;;;;5077989;28;20456;-89
2022/06/26 00:25:25;;;;;;;1.40;1.30;;;;;;;;;;5079830;28;20901;-88
2022/06/26 00:27:52;;;;;;;1.60;1.50;;;;;;;;;;5072171;28;20457;-90
2022/06/26 00:30:20;;;;;;;1.27;1.17;;;19.00;99.90;;;;;;5072618;28;20461;-86
2022/06/26 00:32:47;;;;;;;2.23;1.40;;;;;;;;;;5075396;28;20924;-87
2022/06/26 00:35:14;;;;;;;1.87;1.30;;;;;;;;;;5072290;28;20446;-87
2022/06/26 00:37:42;;;;;;;1.40;1.30;;;;;;;;;;5073747;28;20504;-86
2022/06/26 00:40:09;;;;;;;2.80;1.60;;;19.50;99.90;;;;;;5075001;28;20991;-86
2022/06/26 00:42:37;;;;;;;1.60;1.23;;;19.60;99.90;;;;;;5075453;28;20446;-86
2022/06/26 00:45:04;;;;;;;1.50;1.30;;;;;;;;;;5075149;28;20460;-87
2022/06/26 00:47:32;;;;;;;2.03;1.40;;;19.60;99.90;;;;;;5072003;28;20487;-85
2022/06/26 00:49:59;;;;;;;1.67;1.47;;;;;;;;;;5074876;28;20454;-86
2022/06/26 00:52:28;;;;;;;1.80;1.70;;;19.30;99.90;;;;;;5074549;28;20513;-86
2022/06/26 00:54:55;;;;;;;1.80;1.60;;;;;;;;;;5074235;28;20450;-85
2022/06/26 00:57:23;;;;;;;1.70;1.60;;;;;;;;;;5074688;28;20486;-84
2022/06/26 00:59:50;;;;;;;2.23;2.03;;;;;;;;;;5074637;28;20956;-84
2022/06/26 01:02:17;;;;;;;1.70;1.60;;;;;;;;;;5074598;28;20452;-85
2022/06/26 01:04:45;;;;;;;5.77;1.80;;;18.90;99.90;;;;;;5074421;28;20453;-84
2022/06/26 01:07:14;;;;;;;2.03;1.80;;;;;;;;;;5074470;28;20453;-86
2022/06/26 01:09:42;;;;;;;2.00;1.60;;;;;;;;;;5073279;28;20442;-86
2022/06/26 01:12:09;;;;;;;1.90;1.80;;;;;;;;;;5074545;28;20469;-86
2022/06/26 01:14:37;;;;;;;2.60;1.70;;;;;;;;;;5074404;28;20442;-86
2022/06/26 01:17:04;;;;;;;1.70;1.60;;;18.70;99.90;;;;;;5074342;28;20488;-86
2022/06/26 01:19:31;;;;;;;1.80;1.70;;;;;;;;;;5074182;28;20445;-87
2022/06/26 01:22:00;;;;;;;2.87;1.53;;;18.70;99.90;;;;;;5074239;28;20450;-86
2022/06/26 01:24:28;;;;;;;3.23;1.90;;;18.70;99.90;;;;;;5069819;28;20445;-86
2022/06/26 01:26:55;;;;;;;1.67;1.40;;;;;;;;;;5074089;28;20450;-86
2022/06/26 01:29:22;;;;;;;2.53;1.60;;;;;;;;;;5070960;28;20434;-86
2022/06/26 01:32:20;;;;;;;1.83;1.73;;;18.50;99.90;;;;;;5071060;28;20452;-86
2022/06/26 01:34:47;;;;;;;2.17;1.97;;;;;;;;;;5074262;28;20450;-86
2022/06/26 01:37:14;;;;;;;1.87;1.77;;;;;;;;;;5074096;28;20485;-86
2022/06/26 01:39:42;;;;;;;1.87;1.77;;;18.50;99.90;;;;;;5072928;28;20449;-85
2022/06/26 01:42:09;;;;;;;2.40;1.87;;;;;;;;;;5074040;28;20441;-86
2022/06/26 01:44:36;;;;;;;7.03;2.97;;;;;;;;;;5073969;28;20454;-86
2022/06/26 01:47:03;;;;;;;2.40;2.20;;;;;;;;;;5073971;28;20802;-86
2022/06/26 01:49:31;;;;;;;4.40;2.50;;;;;;;;;;5074061;28;20441;-86
2022/06/26 01:51:58;;;;;;;2.70;2.50;;;;;;;;;;5073819;28;20568;-86
2022/06/26 01:54:25;;;;;;;1.97;1.87;;;;;;;;;;5072568;28;20438;-86
2022/06/26 01:56:53;;;;;;;2.20;2.10;;;18.30;99.90;;;;;;5073853;28;20951;-87
2022/06/26 01:59:20;;;;;;;2.60;1.70;;;;;;;;;;5073739;28;20449;-85
2022/06/26 02:01:47;;;;;;;2.00;1.90;;;;;;;;;;5073804;28;20445;-86
2022/06/26 02:04:16;;;;;;;2.40;2.20;;;;;;;;;;5073696;28;20446;-87
2022/06/26 02:06:43;;;;;;;2.13;1.87;;;;;;;;;;5073247;28;20445;-87
2022/06/26 02:13:36;;;;;;;5.53;1.90;;;;;;;;;;5072463;28;20567;-86
2022/06/26 02:14:43;;;;;;;2.03;1.93;;;;;;;;;;5073474;28;20457;-86
2022/06/26 02:17:10;;;;;;;2.00;1.90;;;;;;;;;;5073520;28;20464;-87
2022/06/26 02:19:37;;;;;;;2.27;1.73;;;;;;;;;;5070783;28;20445;-87
2022/06/26 02:22:05;;;;;;;2.53;2.00;;;;;;;;;;5074133;28;20807;-87
2022/06/26 02:24:32;;;;;;;1.73;1.63;;;;;;;;;;5072937;28;20468;-86
2022/06/26 02:27:00;;;;;;;1.60;1.50;;;17.80;99.90;;;;;;5073681;28;20433;-86
2022/06/26 02:29:27;;;;;;;1.47;1.37;;;;;;;;;;5073313;28;20489;-86
2022/06/26 02:31:54;;;;;;;2.27;2.07;;;;;;;;;;5073191;28;20441;-86
2022/06/26 02:34:21;;;;;;;4.23;1.83;;;;;;;;;;5073292;28;20449;-87
2022/06/26 02:36:48;;;;;;;2.23;1.83;;;;;;;;;;5073210;28;20511;-86
2022/06/26 02:39:15;;;;;;;1.90;1.67;;;;;;;;;;5072086;28;20808;-86
2022/06/26 02:41:42;;;;;;;2.00;1.80;;;;;;;;;;5073263;28;20449;-87
2022/06/26 02:44:10;;;;;;;2.40;2.17;;;17.50;99.90;;;;;;5073287;28;20468;-86
2022/06/26 02:46:37;;;;;;;3.03;2.33;;;;;;;;;;5073214;28;20445;-86
2022/06/26 02:49:05;;;;;;;1.90;1.80;;;;;;;;;;5073027;28;20884;-87
2022/06/26 02:51:32;;;;;;;1.83;1.73;;;;;;;;;;5073052;28;20486;-86
2022/06/26 02:53:59;;;;;;;2.53;2.00;;;;;;;;;;5071789;28;20457;-86
2022/06/26 02:56:26;;;;;;;1.90;1.80;;;;;;;;;;5073079;28;20464;-87
2022/06/26 02:58:53;;;;;;;2.90;2.00;;;;;;;;;;5073012;28;20445;-87
2022/06/26 03:01:21;;;;;;;1.77;1.63;;;17.30;99.90;;;;;;5073028;28;20446;-86
2022/06/26 03:03:48;;;;;;;2.27;2.07;;;;;;;;;;5072928;28;20460;-87
2022/06/26 03:06:15;;;;;;;1.70;1.60;;;;;;;;;;5072944;28;20841;-86
2022/06/26 03:08:42;;;;;;;2.03;1.93;;;;;;;;;;5071611;28;20493;-85
2022/06/26 03:11:09;;;;;;;1.93;1.83;;;;;;;;;;5072889;28;20456;-86
2022/06/26 03:13:36;;;;;;;1.73;1.63;;;;;;;;;;5072888;28;20442;-86
2022/06/26 03:16:03;;;;;;;2.10;2.00;;;;;;;;;;5072918;28;20445;-86
2022/06/26 03:18:32;;;;;;;2.30;1.80;;;17.10;99.90;;;;;;5076384;28;20958;-86
2022/06/26 03:20:59;;;;;;;2.30;2.10;;;;;;;;;;5076747;28;20445;-86
2022/06/26 03:24:01;;;;;;;2.33;1.87;;;;;;;;;;5075583;28;20453;-86
2022/06/26 03:26:14;;;;;;;2.13;1.93;;;;;;;;;;5076440;28;20833;-86
2022/06/26 03:28:41;;;;;;;2.00;1.80;;;;;;;;;;5076389;28;20497;-86
2022/06/26 03:31:08;;;;;;;2.30;1.90;;;;;;;;;;5076547;28;20456;-86
2022/06/26 03:33:36;;;;;;;2.27;2.00;;;17.00;99.90;;;;;;5076646;28;20448;-87
2022/06/26 03:36:03;;;;;;;2.00;1.80;;;;;;;;;;5076351;28;20468;-86
2022/06/26 03:38:30;;;;;;;2.47;2.23;;;;;;;;;;5075081;28;20461;-86
2022/06/26 03:40:57;;;;;;;3.13;2.17;;;;;;;;;;5076443;28;20457;-86
2022/06/26 03:43:24;;;;;;;2.10;1.90;;;;;;;;;;5076270;28;20481;-86
2022/06/26 03:45:51;;;;;;;2.13;1.93;;;;;;;;;;5076285;28;20445;-86
2022/06/26 03:48:19;;;;;;;2.37;2.17;;;;;;;;;;5076166;28;20813;-85
2022/06/26 03:50:47;;;;;;;2.07;1.90;;;16.80;99.90;;;;;;5075865;28;20456;-86
2022/06/26 03:53:14;;;;;;;2.83;2.33;;;;;;;;;;5074888;28;20449;-86
2022/06/26 03:55:41;;;;;;;2.53;2.00;;;;;;;;;;5076039;28;20445;-86
2022/06/26 03:58:08;;;;;;;2.10;2.00;;;;;;;;;;5075971;28;20457;-86
2022/06/26 04:00:35;;;;;;;1.77;1.67;;;;;;;;;;5075984;28;20446;-86
2022/06/26 04:03:03;;;;;;;2.07;1.67;;;17.00;99.90;;;;;;5075895;28;20462;-87
2022/06/26 04:05:31;;;;;;;2.40;2.27;;;;;;;;;;5075870;28;20449;-86
2022/06/26 04:08:00;;;;;;;2.17;2.00;;;17.10;99.90;;;;;;5074753;28;20493;-87
2022/06/26 04:10:28;;;;;;;2.70;2.03;;;;;;;;;;5075888;28;20449;-87
2022/06/26 04:12:55;;;;;;;2.13;1.93;;;;;;;;;;5075791;28;20967;-86
2022/06/26 04:15:22;;;;;;;3.20;2.00;;;;;;;;;;5072901;28;20454;-86
2022/06/26 04:17:49;;;;;;;2.27;2.07;;;;;;;;;;5072885;28;20548;-86
2022/06/26 04:20:16;;;;;;;3.50;2.00;;;;;;;;;;5075823;28;20960;-86
2022/06/26 04:22:43;;;;;;;2.50;1.67;;;;;;;;;;5074587;28;20456;-86
2022/06/26 04:25:12;;;;;;;2.00;1.90;;;17.10;99.90;;;;;;5075460;28;20453;-86
2022/06/26 04:27:39;;;;;;;2.33;2.13;;;;;;;;;;5071532;28;20831;-85
2022/06/26 04:30:07;;;;;;;2.53;2.10;;;17.20;99.90;;;;;;5074939;28;20489;-86
2022/06/26 04:32:34;;;;;;;2.40;2.20;;;;;;;;;;5075539;28;20449;-86
2022/06/26 04:35:01;;;;;;;2.60;2.40;;;;;;;;;;5075391;28;20936;-86
2022/06/26 04:37:29;;;;;;;1.80;1.70;;;;;;;;;;5075066;28;20461;-86
2022/06/26 04:39:56;;;;;;;2.73;2.53;;;;;;;;;;5072030;28;20607;-86
2022/06/26 04:42:24;;;;;;;3.53;2.53;;;17.20;99.90;;;;;;5075322;28;20826;-86
2022/06/26 04:44:51;;;;;;;4.73;2.50;;;;;;;;;;5075447;28;20449;-86
2022/06/26 04:47:18;;;;;;;4.50;2.53;;;;;;;;;;5075623;28;20468;-86
2022/06/26 04:49:45;;;;;;;2.27;2.07;;;;;;;;;;5076500;28;20490;-86
2022/06/26 04:52:12;;;;;;;2.93;2.63;;;;;;;;;;5075160;28;20481;-86
2022/06/26 04:54:40;;;;;;;2.10;2.00;;;;;;;;;;5073883;28;20449;-87
2022/06/26 04:57:07;;;;;;;2.97;2.63;;;;;;;;;;5075050;28;20468;-85
2022/06/26 04:59:35;;;;;;;2.70;2.50;;;17.90;99.90;;;;;;5074943;28;20446;-86
2022/06/26 05:02:02;;;;;;;2.50;2.30;;;;;;;;;;5074957;28;20450;-86
2022/06/26 05:04:29;;;;;;;3.30;2.90;;;;;;;;;;5074824;28;20442;-87
2022/06/26 05:06:56;;;;;;;3.00;2.80;;;;;;;;;;5074669;28;20456;-86
2022/06/26 05:09:24;;;;;;;3.83;2.33;;;;;;;;;;5073485;28;20485;-86
2022/06/26 05:11:51;;;;;;;2.60;2.40;;;;;;;;;;5074558;28;20937;-86
2022/06/26 05:14:19;;;;;;;2.77;2.30;;;;;;;;;;5074527;28;20442;-86
2022/06/26 05:16:47;;;;;;;2.37;2.17;;;18.10;99.90;;;;;;5074482;28;20452;-86
2022/06/26 05:19:14;;;;;;;2.30;2.10;;;;;;;;;;5074427;28;20472;-85
2022/06/26 05:21:41;;;;;;;2.37;2.17;;;;;;;;;;5074517;28;20847;-85
2022/06/26 05:24:08;;;;;;;2.83;2.43;;;;;;;;;;5073147;28;20450;-86
2022/06/26 05:26:36;;;;;;;2.10;2.00;;;;;;;;;;5074237;28;20465;-86
2022/06/26 05:29:03;;;;;;;2.23;2.03;;;;;;;;;;5074131;28;20845;-86
2022/06/26 05:31:31;;;;;;;2.20;2.00;;;;;;;;;;5074277;28;20438;-87
2022/06/26 05:33:59;;;;;;;2.43;2.23;;;;;;;;;;5074247;28;20450;-86
2022/06/26 05:36:26;;;;;;;5.77;2.13;;;;;;;;;;5074041;28;20488;-87
2022/06/26 05:38:53;;;;;;;2.20;2.07;;;;;;;;;;5072882;28;20441;-85
2022/06/26 05:41:20;;;;;;;1.63;1.53;;;;;;;;;;5073191;28;20450;-87
2022/06/26 05:43:48;;;;;;;3.40;1.50;;;;;;;;;;5074130;28;20452;-86
2022/06/26 05:46:15;;;;;;;2.10;2.00;;;;;;;;;;5073976;28;20797;-86
2022/06/26 05:48:42;;;;;;;2.00;1.90;;;;;;;;;;5073672;28;20499;-86
2022/06/26 05:51:10;;;;;;;2.17;1.97;;;19.40;99.90;;;;;;5073694;28;21035;-86
2022/06/26 05:53:38;;;;;;;1.80;1.70;;;;;;;;;;5072768;28;20449;-87
2022/06/26 05:56:05;;;;;;;2.40;2.10;;;;;;;;;;5073801;28;20846;-86
2022/06/26 05:58:32;;;;;;;3.80;1.57;;;;;;;;;;5038974;28;20453;-87
2022/06/26 06:00:59;;;;;;;1.60;1.50;;;;;;;;;;5070708;28;20438;-86
2022/06/26 06:03:26;;;;;;;1.90;1.80;;;;;;;;;;5073614;28;20450;-86
2022/06/26 06:05:53;;;;;;;2.00;1.90;;;;;;;;;;5073595;28;20452;-87
2022/06/26 06:08:22;;;;;;;1.97;1.80;;;22.80;99.90;;;;;;5072504;28;20446;-88
2022/06/26 06:10:49;;;;;;;5.47;1.80;;;;;;;;;;5074174;28;20441;-90
2022/06/26 06:13:16;;;;;;;2.10;1.90;;;;;;;;;;5074116;28;20453;-90
2022/06/26 06:15:44;;;;;;;1.90;1.80;;;23.90;99.90;;;;;;5074199;28;20449;-90
2022/06/26 06:18:12;;;;;;;1.80;1.70;;;;;;;;;;5074802;28;20457;-94
2022/06/26 06:20:39;;;;;;;1.60;1.50;;;;;;;;;;5074204;28;20450;-91
2022/06/26 06:23:07;;;;;;;4.10;1.67;;;24.60;95.80;;;;;;5070405;28;20987;-90
2022/06/26 06:25:35;;;;;;;1.80;1.70;;;24.70;95.20;;;;;;5074937;28;20446;-92
2022/06/26 06:28:02;;;;;;;1.80;1.70;;;;;;;;;;5073862;28;20920;-91
2022/06/26 06:30:29;;;;;;;2.17;1.60;;;;;;;;;;5073987;28;20489;-93
2022/06/26 06:32:57;;;;;;;1.30;1.20;;;;;;;;;;5074742;28;20430;-94
2022/06/26 06:35:24;;;;;;;1.57;1.47;;;;;;;;;;5074450;28;20474;-89
2022/06/26 06:37:51;;;;;;;1.67;1.57;;;;;;;;;;5072423;28;20442;-89
2022/06/26 06:40:18;;;;;;;1.40;1.30;;;;;;;;;;5070124;28;20534;-89
2022/06/26 06:42:46;;;;;;;1.10;1.00;;;21.60;99.40;;;;;;5073059;28;20457;-88
2022/06/26 06:45:13;;;;;;;1.57;1.20;;;22.40;98.80;;;;;;5073090;28;20932;-88
2022/06/26 06:47:41;;;;;;;1.30;1.20;;;;;;;;;;5073198;28;20448;-88
2022/06/26 06:50:08;;;;;;;1.17;1.07;;;;;;;;;;5072922;28;20497;-89
2022/06/26 06:52:35;;;;;;;1.27;1.17;;;;;;;;;;5071372;28;20821;-89
2022/06/26 06:55:03;;;;;;;1.30;1.20;;;;;;;;;;5073036;28;20479;-88
2022/06/26 06:57:30;;;;;;;1.20;1.10;;;;;;;;;;5072901;28;20456;-88
2022/06/26 06:59:58;;;;;;;4.63;1.20;;;24.50;92.10;;;;;;5072849;28;20450;-88
2022/06/26 07:02:25;;;;;;;1.60;1.30;;;;;;;;;;5072883;28;20450;-88
2022/06/26 07:04:52;;;;;;;2.63;1.10;;;;;;;;;;5072849;28;20446;-89
2022/06/26 07:07:19;;;;;;;1.20;1.10;;;;;;;;;;5073166;28;20442;-88
2022/06/26 07:09:46;;;;;;;2.20;0.97;;;;;;;;;;5068581;28;20838;-88
2022/06/26 07:12:14;;;;;;;1.90;1.23;;;;;;;;;;5070056;28;20449;-88
2022/06/26 07:14:41;;;;;;;1.20;1.10;;;;;;;;;;5075597;28;20454;-88
2022/06/26 07:17:09;;;;;;;1.87;1.10;;;25.30;90.10;;;;;;5073464;28;20465;-89
2022/06/26 07:19:36;;;;;;;1.33;1.20;;;;;;;;;;5069703;28;20441;-89
2022/06/26 07:22:03;;;;;;;1.20;1.10;;;;;;;;;;5072786;28;20442;-89
2022/06/26 07:24:31;;;;;;;1.27;1.17;;;;;;;;;;5071253;28;20457;-89
2022/06/26 07:26:58;;;;;;;1.07;0.93;;;;;;;;;;5073145;28;20814;-89
2022/06/26 07:29:25;;;;;;;1.53;1.27;;;;;;;;;;5072728;28;20493;-89
2022/06/26 07:31:52;;;;;;;1.30;1.20;;;;;;;;;;5072728;28;20457;-88
2022/06/26 07:34:21;;;;;;;1.27;0.90;;;26.00;87.30;;;;;;5072598;28;20480;-89
2022/06/26 07:36:49;;;;;;;1.23;1.13;;;25.70;85.20;;;;;;5072586;28;20441;-89
2022/06/26 07:39:19;;;;;;;1.10;1.00;;;26.20;88.20;;;;;;5071150;28;20454;-89
2022/06/26 07:41:46;;;;;;;1.20;1.00;;;;;;;;;;5072631;28;20446;-89
2022/06/26 07:44:14;;;;;;;1.23;1.10;;;;;;;;;;5072575;28;20456;-89
2022/06/26 07:46:41;;;;;;;0.90;0.90;;;;;;;;;;5072678;28;20924;-89
2022/06/26 07:49:08;;;;;;;1.30;1.20;;;;;;;;;;5072548;28;20485;-88
2022/06/26 07:51:37;;;;;;;0.93;0.93;;;27.00;84.90;;;;;;5072295;28;20488;-89
2022/06/26 07:54:05;;;;;;;1.87;1.13;;;;;;;;;;5071062;28;20818;-87
2022/06/26 07:56:32;;;;;;;1.47;1.20;;;;;;;;;;5069192;28;20446;-87
2022/06/26 07:59:00;;;;;;;1.67;1.33;;;;;;;;;;5072495;28;20452;-87
2022/06/26 08:01:27;;;;;;;2.20;1.20;;;;;;;;;;5072330;28;20493;-87
2022/06/26 08:03:54;;;;;;;1.20;1.10;;;;;;;;;;5073163;28;20450;-86
2022/06/26 08:06:21;;;;;;;1.30;1.20;;;;;;;;;;5075861;28;20456;-87
2022/06/26 08:08:50;;;;;;;1.13;1.03;;;26.90;83.60;;;;;;5074556;28;20824;-88
2022/06/26 08:11:17;;;;;;;1.47;1.37;;;;;;;;;;5075688;28;20497;-89
2022/06/26 08:13:44;;;;;;;1.37;1.27;;;;;;;;;;5075801;28;20445;-88
2022/06/26 08:16:11;;;;;;;1.27;1.17;;;;;;;;;;5072579;28;20445;-89
2022/06/26 08:18:38;;;;;;;2.37;1.83;;;;;;;;;;5075614;28;20461;-86
2022/06/26 08:23:47;;;;;;;1.20;1.10;;;;;;;;;;5073244;28;20793;-86
2022/06/26 08:26:15;;;;;;;1.20;1.10;;;28.30;76.10;;;;;;5075664;28;20434;-86
2022/06/26 08:28:42;;;;;;;1.80;1.20;;;;;;;;;;5075386;28;20445;-86
2022/06/26 08:31:09;;;;;;;1.67;1.00;;;;;;;;;;5075304;28;20493;-86
2022/06/26 08:33:36;;;;;;;1.40;1.30;;;;;;;;;;5075234;28;20456;-86
2022/06/26 08:36:04;;;;;;;1.23;1.13;;;;;;;;;;5075407;28;20468;-86
2022/06/26 08:38:31;;;;;;;1.10;1.10;;;;;;;;;;5074110;28;20476;-86
2022/06/26 08:40:59;;;;;;;1.27;1.17;;;27.70;75.40;;;;;;5075364;28;20559;-86
2022/06/26 08:43:28;;;;;;;2.40;1.73;;;27.70;79.50;;;;;;5075249;28;20446;-86
2022/06/26 08:45:55;;;;;;;1.03;1.03;;;;;;;;;;5075154;28;20823;-87
2022/06/26 08:48:26;;;;;;;1.20;1.10;;;27.20;76.80;;;;;;5075254;28;20963;-85
2022/06/26 08:50:53;;;;;;;1.73;1.50;;;;;;;;;;5070740;28;20500;-87
2022/06/26 08:53:21;;;;;;;1.70;1.40;;;;;;;;;;5073956;28;20441;-87
2022/06/26 08:55:48;;;;;;;1.87;1.30;;;;;;;;;;5074942;28;20453;-86
2022/06/26 08:58:15;;;;;;;1.30;1.20;;;;;;;;;;5074954;28;20814;-87
2022/06/26 09:00:46;;;;;;;1.20;1.10;;;28.80;77.20;;;;;;5074800;28;20456;-86
2022/06/26 09:03:13;;;;;;;1.10;1.00;;;;;;;;;;5072282;28;20441;-86
2022/06/26 09:05:41;;;;;;;1.10;0.90;;;;;;;;;;5074845;28;20461;-86
2022/06/26 09:08:17;;;;;;;1.30;1.20;;;29.40;75.10;;;;;;5073621;28;20445;-87
2022/06/26 09:10:45;;;;;;;1.23;1.00;;;;;;;;;;5074523;28;20493;-86
2022/06/26 09:13:12;;;;;;;2.47;1.33;;;;;;;;;;5074676;28;20446;-89
2022/06/26 09:15:40;;;;;;;1.50;1.37;;;28.90;72.40;;;;;;5074570;28;20479;-87
2022/06/26 09:18:09;;;;;;;0.90;0.90;;;29.10;76.60;;;;;;5074493;28;20471;-86
2022/06/26 09:20:38;;;;;;;1.13;1.03;;;29.70;75.00;;;;;;5074433;28;20952;-89
2022/06/26 09:23:07;;;;;;;1.47;1.37;;;29.70;72.40;;;;;;5073146;28;20854;-89
2022/06/26 09:25:36;;;;;;;2.20;1.30;;;29.70;72.90;;;;;;5074226;28;20445;-89
2022/06/26 09:28:11;;;;;;;1.80;0.93;;;29.70;71.00;;;;;;5074564;28;20441;-91
2022/06/26 09:30:52;;;;;;;1.40;1.30;;;30.10;72.50;;;;;;5074291;28;20489;-86
2022/06/26 09:33:22;;;;;;;1.60;1.40;;;29.70;73.80;;;;;;5074077;28;20450;-88
2022/06/26 09:35:49;;;;;;;1.40;1.30;;;;;;;;;;5074041;28;20441;-86
2022/06/26 09:38:17;;;;;;;1.20;1.07;;;30.00;72.50;;;;;;5073365;28;20433;-88
2022/06/26 09:40:49;;;;;;;1.53;1.20;;;30.00;72.50;;;;;;5076512;28;20529;-87
2022/06/26 09:43:25;;;;;;;1.10;1.00;;;29.40;71.50;;;;;;5074128;28;20442;-85
2022/06/26 09:45:53;;;;;;;1.73;1.50;;;;;;;;;;5073983;28;20449;-85
2022/06/26 09:48:23;;;;;;;1.40;1.30;;;27.90;77.90;;;;;;5073919;28;20515;-89
2022/06/26 09:50:50;;;;;;;1.20;1.10;;;;;;;;;;5073623;28;20493;-89
2022/06/26 09:53:18;;;;;;;1.70;1.20;;;28.50;76.90;;;;;;5072646;28;20456;-89
2022/06/26 09:55:46;;;;;;;2.00;1.30;;;;;;;;;;5073792;28;20488;-89
2022/06/26 09:58:13;;;;;;;1.10;1.00;;;29.00;77.40;;;;;;5073744;28;20841;-86
2022/06/26 10:00:40;;;;;;;1.20;1.10;;;;;;;;;;5073611;28;20449;-88
2022/06/26 10:08:43;;;;;;;1.47;1.23;;;29.40;75.70;;;;;;5072058;28;20538;-87
2022/06/26 10:11:10;;;;;;;3.27;1.10;;;;;;;;;;5069342;28;20493;-87
2022/06/26 10:13:40;;;;;;;2.00;1.10;;;29.20;74.70;;;;;;5073473;28;20468;-87
2022/06/26 10:16:36;;;;;;;1.40;1.30;;;29.50;76.30;;;;;;5073520;28;20449;-87
2022/06/26 10:19:16;;;;;;;1.07;1.00;;;29.80;75.10;;;;;;5069457;28;20461;-87
2022/06/26 10:21:47;;;;;;;1.30;1.00;;;30.20;73.20;;;;;;5073539;28;20450;-87
2022/06/26 10:24:15;;;;;;;1.03;1.03;;;;;;;;;;5072170;28;20453;-87
2022/06/26 10:26:52;;;;;;;2.53;1.20;;;30.10;68.90;;;;;;5070169;28;20830;-86
2022/06/26 10:29:19;;;;;;;1.47;1.20;;;;;;;;;;5073331;28;20453;-86
2022/06/26 10:31:47;;;;;;;1.80;1.17;;;30.00;73.50;;;;;;5070400;28;20503;-86
2022/06/26 10:34:17;;;;;;;1.00;1.00;;;30.50;72.40;;;;;;5072971;28;20493;-86
2022/06/26 10:36:57;;;;;;;1.20;1.10;;;30.30;70.60;;;;;;5073221;28;20455;-87
2022/06/26 10:39:24;;;;;;;2.50;1.20;;;;;;;;;;5071886;28;20450;-86
2022/06/26 10:44:45;;;;;;;1.03;1.03;;;30.70;69.50;;;;;;5073363;28;20455;-87
2022/06/26 10:47:16;;;;;;;1.63;1.20;;;30.70;69.90;;;;;;5070315;28;20459;-87
2022/06/26 10:49:50;;;;;;;1.10;1.00;;;31.00;66.70;;;;;;5073215;28;20445;-87
2022/06/26 10:52:26;;;;;;;1.30;1.20;;;30.40;69.30;;;;;;5073413;28;20473;-86
2022/06/26 10:54:54;;;;;;;1.30;1.20;;;29.50;69.20;;;;;;5071831;28;20453;-86
2022/06/26 10:57:35;;;;;;;1.00;1.00;;;29.00;72.30;;;;;;5068959;28;20437;-87
2022/06/26 11:00:04;;;;;;;1.30;1.20;;;28.40;79.90;;;;;;5073145;28;20466;-86
2022/06/26 11:02:37;;;;;;;2.50;1.30;;;28.20;81.10;;;;;;5072953;28;20454;-87
2022/06/26 11:05:06;;;;;;;1.43;1.33;;;27.70;92.00;;;;;;5072823;28;20469;-85
2022/06/26 11:07:42;;;;;;;2.77;2.53;;;;;;;;;;5072070;28;20465;-86
2022/06/26 11:10:12;;;;;;;6.57;5.17;;;27.70;98.70;;;;;;5072738;28;20491;-86
2022/06/26 11:12:43;;;;;;;1.43;1.03;;;27.70;78.50;;;;;;5072680;28;20449;-86
2022/06/26 11:15:21;;;;;;;2.40;1.50;;;27.90;83.00;;;;;;5072832;28;20445;-86
2022/06/26 11:17:56;;;;;;;2.67;1.47;;;28.10;85.70;;;;;;5068682;28;20441;-84
2022/06/26 11:23:21;;;;;;;3.83;2.47;;;28.10;89.90;;;;;;5071460;28;20453;-86
2022/06/26 11:25:50;;;;;;;1.37;1.27;;;27.90;83.70;;;;;;5072709;28;20449;-87
2022/06/26 11:28:17;;;;;;;1.30;1.20;;;27.60;83.00;;;;;;5069537;28;20453;-85
2022/06/26 11:30:46;;;;;;;1.90;1.47;;;27.70;83.90;;;;;;5072617;28;20477;-85
2022/06/26 11:33:14;;;;;;;1.20;1.10;;;;;;;;;;5072553;28;20461;-85
2022/06/26 11:35:41;;;;;;;1.30;1.20;;;28.10;83.50;;;;;;5072871;28;20452;-86
2022/06/26 11:38:18;;;;;;;2.50;1.03;;;28.00;79.50;;;;;;5071590;28;20452;-87
2022/06/26 11:40:46;;;;;;;1.00;1.00;;;28.90;87.80;;;;;;5076444;28;20457;-87
2022/06/26 11:43:14;;;;;;;1.57;1.47;;;29.40;78.70;;;;;;5076627;28;20454;-87
2022/06/26 11:45:43;;;;;;;1.10;1.10;;;;;;;;;;5076720;28;20461;-86
2022/06/26 11:48:15;;;;;;;1.40;1.30;;;28.40;77.00;;;;;;5076876;28;20446;-86
2022/06/26 11:50:42;;;;;;;1.10;1.00;;;;;;;;;;5076444;28;20487;-87
2022/06/26 11:53:10;;;;;;;1.23;1.13;;;;;;;;;;5075289;28;20449;-86
2022/06/26 11:55:47;;;;;;;1.53;1.43;;;28.90;92.60;;;;;;5076409;28;20463;-88
2022/06/26 11:58:18;;;;;;;1.03;0.90;;;28.50;92.60;;;;;;5076837;28;20472;-86
2022/06/26 12:00:45;;;;;;;1.40;1.30;;;;;;;;;;5076425;28;20453;-85
2022/06/26 12:03:13;;;;;;;1.63;1.50;;;;;;;;;;5077217;28;20458;-86
2022/06/26 12:05:41;;;;;;;1.63;1.53;;;;;;;;;;5078657;28;20441;-86
2022/06/26 12:08:15;;;;;;;1.50;1.23;;;29.00;79.10;;;;;;5075335;28;20868;-87
2022/06/26 12:10:42;;;;;;;1.57;1.33;;;;;;;;;;5075845;28;20935;-86
2022/06/26 12:13:22;;;;;;;2.30;1.50;;;28.50;81.20;;;;;;5075901;28;20442;-86
2022/06/26 12:15:49;;;;;;;1.33;1.23;;;;;;;;;;5070160;28;20452;-87
2022/06/26 12:18:16;;;;;;;1.10;1.00;;;;;;;;;;5075792;28;20442;-87
2022/06/26 12:20:44;;;;;;;2.90;1.30;;;;;;;;;;5072495;28;20499;-87
2022/06/26 12:23:12;;;;;;;59.17;52.90;;;28.80;98.20;;;;;;5074715;28;20770;-87
2022/06/26 12:25:40;;;;;;;148.17;87.77;;;;;;;;;;5075576;28;20441;-87
2022/06/26 12:28:07;;;;;;;217.13;113.93;;;;;;;;;;5075509;28;20446;-87
2022/06/26 12:30:36;;;;;;;222.00;108.20;;;29.20;90.30;;;;;;5075429;28;20477;-86
2022/06/26 12:33:05;;;;;;;105.20;75.40;;;29.10;98.50;;;;;;5075330;28;20465;-87
2022/06/26 12:35:33;;;;;;;1.60;1.40;;;29.10;80.50;;;;;;5075244;28;20445;-87
2022/06/26 12:38:01;;;;;;;1.43;1.33;;;;;;;;;;5074017;28;20441;-86
2022/06/26 12:40:28;;;;;;;1.20;1.10;;;;;;;;;;5071260;28;20460;-85
2022/06/26 12:42:56;;;;;;;1.37;1.27;;;;;;;;;;5075180;28;20453;-86
2022/06/26 12:45:23;;;;;;;2.33;1.40;;;;;;;;;;5075182;28;20441;-88
2022/06/26 12:47:51;;;;;;;1.30;1.20;;;29.30;86.00;;;;;;5074931;28;20454;-87
2022/06/26 12:50:18;;;;;;;2.80;1.30;;;;;;;;;;5071976;28;20456;-87
2022/06/26 12:52:46;;;;;;;2.30;2.10;;;;;;;;;;5075469;28;20837;-87
2022/06/26 12:55:13;;;;;;;1.60;1.50;;;;;;;;;;5077307;28;20489;-88
2022/06/26 12:57:40;;;;;;;1.23;1.10;;;;;;;;;;5078554;28;20454;-88
2022/06/26 13:00:08;;;;;;;1.80;1.50;;;29.70;81.50;;;;;;5077944;28;20964;-86
2022/06/26 13:02:35;;;;;;;1.43;1.33;;;;;;;;;;5075430;28;20456;-86
2022/06/26 13:05:04;;;;;;;2.00;1.47;;;;;;;;;;5075953;28;20445;-88
2022/06/26 13:07:31;;;;;;;1.20;1.10;;;;;;;;;;5075571;28;20446;-88
2022/06/26 13:09:58;;;;;;;1.73;1.40;;;;;;;;;;5075544;28;20956;-87
2022/06/26 13:12:25;;;;;;;1.57;1.30;;;;;;;;;;5075673;28;20497;-88
2022/06/26 13:14:52;;;;;;;1.20;1.10;;;;;;;;;;5072787;28;20790;-86
2022/06/26 13:17:19;;;;;;;1.43;1.33;;;;;;;;;;5075520;28;20454;-86
2022/06/26 13:19:46;;;;;;;1.20;1.10;;;;;;;;;;5075177;28;20425;-88
2022/06/26 13:22:15;;;;;;;1.73;1.40;;;30.00;85.70;;;;;;5075101;28;20456;-87
2022/06/26 13:24:42;;;;;;;1.47;1.37;;;;;;;;;;5073871;28;20444;-87
2022/06/26 13:27:09;;;;;;;1.37;1.27;;;;;;;;;;5074939;28;20429;-87
2022/06/26 13:29:37;;;;;;;1.50;1.40;;;;;;;;;;5074812;28;20786;-88
2022/06/26 13:32:05;;;;;;;1.73;1.30;;;29.40;77.30;;;;;;5074429;28;20871;-89
2022/06/26 13:34:32;;;;;;;2.00;1.60;;;;;;;;;;5074726;28;20448;-87
2022/06/26 13:37:00;;;;;;;1.40;1.30;;;;;;;;;;5074720;28;20450;-87
2022/06/26 13:39:28;;;;;;;1.80;1.50;;;29.40;82.00;;;;;;5073769;28;20476;-87
2022/06/26 13:41:55;;;;;;;2.07;1.47;;;;;;;;;;5075098;28;20442;-88
2022/06/26 13:44:22;;;;;;;1.40;1.30;;;;;;;;;;5090320;28;20426;-87
2022/06/26 13:46:49;;;;;;;3.50;3.20;;;;;;;;;;5097151;28;20434;-87
2022/06/26 13:49:16;;;;;;;1.23;1.13;;;;;;;;;;5074925;28;20449;-84
2022/06/26 13:51:44;;;;;;;1.50;1.40;;;;;;;;;;5074419;28;20493;-88
2022/06/26 13:54:11;;;;;;;1.90;1.60;;;;;;;;;;5073266;28;20839;-88
2022/06/26 13:56:39;;;;;;;1.50;1.40;;;30.00;81.90;;;;;;5074094;28;20936;-87
2022/06/26 13:59:06;;;;;;;1.30;1.10;;;;;;;;;;5074518;28;20454;-92
2022/06/26 14:01:33;;;;;;;1.70;1.60;;;;;;;;;;5075037;28;20446;-89
2022/06/26 14:04:00;;;;;;;1.40;1.30;;;;;;;;;;5075767;28;20945;-90
2022/06/26 14:06:28;;;;;;;2.10;1.50;;;;;;;;;;5076136;28;20446;-89
2022/06/26 14:08:56;;;;;;;1.57;1.47;;;;;;;;;;5075932;28;20460;-89
2022/06/26 14:11:23;;;;;;;1.30;1.20;;;;;;;;;;5074985;28;20481;-89
2022/06/26 14:13:52;;;;;;;2.83;1.37;;;;;;;;;;5074337;28;20449;-90
2022/06/26 14:16:19;;;;;;;1.47;1.37;;;;;;;;;;5074583;28;20441;-90
2022/06/26 14:18:46;;;;;;;1.40;1.30;;;;;;;;;;5074632;28;20449;-89
2022/06/26 14:21:13;;;;;;;3.37;1.17;;;;;;;;;;5074138;28;20438;-89
2022/06/26 14:26:25;;;;;;;1.47;1.30;;;;;;;;;;5074945;28;20437;-89
2022/06/26 14:28:54;;;;;;;1.53;1.30;;;29.80;79.30;;;;;;5075862;28;20446;-88